sensor_id;sensor_type;location;lat;lon;timestamp;P1;durP1;ratioP1;P2;durP2;ratioP2
17340;SDS011;8788;49.930;8.660;2023-03-01T00:02:16;11.15;;;6.63;;
17340;SDS011;8788;49.930;8.660;2023-03-01T00:04:43;8.02;;;6.40;;
17340;SDS011;8788;49.930;8.660;2023-03-01T00:07:11;7.95;;;6.18;;
17340;SDS011;8788;49.930;8.660;2023-03-01T00:09:38;8.55;;;5.60;;
17340;SDS011;8788;49.930;8.660;2023-03-01T00:12:05;9.63;;;6.03;;
17340;SDS011;8788;49.930;8.660;2023-03-01T00:14:33;9.18;;;6.80;;
17340;SDS011;8788;49.930;8.660;2023-03-01T00:17:01;10.18;;;7.03;;
17340;SDS011;8788;49.930;8.660;2023-03-01T00:19:28;8.05;;;6.88;;
17340;SDS011;8788;49.930;8.660;2023-03-01T00:21:57;8.77;;;6.50;;
17340;SDS011;8788;49.930;8.660;2023-03-01T00:24:24;9.55;;;6.72;;
17340;SDS011;8788;49.930;8.660;2023-03-01T00:26:52;12.18;;;7.10;;
17340;SDS011;8788;49.930;8.660;2023-03-01T00:29:21;11.15;;;7.15;;
17340;SDS011;8788;49.930;8.660;2023-03-01T00:31:48;8.65;;;6.47;;
17340;SDS011;8788;49.930;8.660;2023-03-01T00:34:16;10.35;;;7.05;;
17340;SDS011;8788;49.930;8.660;2023-03-01T00:36:44;9.32;;;6.88;;
17340;SDS011;8788;49.930;8.660;2023-03-01T00:39:12;12.10;;;6.93;;
17340;SDS011;8788;49.930;8.660;2023-03-01T00:41:41;9.82;;;7.05;;
17340;SDS011;8788;49.930;8.660;2023-03-01T00:44:09;9.73;;;6.32;;
17340;SDS011;8788;49.930;8.660;2023-03-01T00:46:37;9.35;;;6.38;;
17340;SDS011;8788;49.930;8.660;2023-03-01T00:49:04;10.02;;;6.43;;
17340;SDS011;8788;49.930;8.660;2023-03-01T00:51:33;8.65;;;6.45;;
17340;SDS011;8788;49.930;8.660;2023-03-01T00:54:01;8.90;;;5.95;;
17340;SDS011;8788;49.930;8.660;2023-03-01T00:56:28;8.93;;;6.22;;
17340;SDS011;8788;49.930;8.660;2023-03-01T00:58:56;8.75;;;6.03;;
17340;SDS011;8788;49.930;8.660;2023-03-01T01:01:24;11.38;;;6.82;;
17340;SDS011;8788;49.930;8.660;2023-03-01T01:03:56;10.00;;;7.40;;
17340;SDS011;8788;49.930;8.660;2023-03-01T01:06:25;11.00;;;6.88;;
17340;SDS011;8788;49.930;8.660;2023-03-01T01:08:54;9.05;;;6.10;;
17340;SDS011;8788;49.930;8.660;2023-03-01T01:11:23;9.35;;;6.53;;
17340;SDS011;8788;49.930;8.660;2023-03-01T01:13:51;10.18;;;6.38;;
17340;SDS011;8788;49.930;8.660;2023-03-01T01:16:20;12.70;;;7.20;;
17340;SDS011;8788;49.930;8.660;2023-03-01T01:18:49;10.70;;;7.20;;
17340;SDS011;8788;49.930;8.660;2023-03-01T01:21:17;10.23;;;6.82;;
17340;SDS011;8788;49.930;8.660;2023-03-01T01:23:47;11.00;;;6.85;;
17340;SDS011;8788;49.930;8.660;2023-03-01T01:26:16;8.60;;;6.97;;
17340;SDS011;8788;49.930;8.660;2023-03-01T01:28:46;8.77;;;6.55;;
17340;SDS011;8788;49.930;8.660;2023-03-01T01:31:13;8.75;;;6.65;;
17340;SDS011;8788;49.930;8.660;2023-03-01T01:33:41;10.23;;;6.60;;
17340;SDS011;8788;49.930;8.660;2023-03-01T01:36:09;11.63;;;6.97;;
17340;SDS011;8788;49.930;8.660;2023-03-01T01:38:37;11.18;;;6.05;;
17340;SDS011;8788;49.930;8.660;2023-03-01T01:41:04;9.35;;;6.80;;
17340;SDS011;8788;49.930;8.660;2023-03-01T01:43:35;11.07;;;7.13;;
17340;SDS011;8788;49.930;8.660;2023-03-01T01:46:04;9.32;;;6.32;;
17340;SDS011;8788;49.930;8.660;2023-03-01T01:48:34;9.25;;;7.15;;
17340;SDS011;8788;49.930;8.660;2023-03-01T01:51:07;10.45;;;6.70;;
17340;SDS011;8788;49.930;8.660;2023-03-01T01:53:39;8.00;;;5.78;;
17340;SDS011;8788;49.930;8.660;2023-03-01T01:56:07;9.65;;;7.10;;
17340;SDS011;8788;49.930;8.660;2023-03-01T01:58:38;10.27;;;7.28;;
17340;SDS011;8788;49.930;8.660;2023-03-01T02:01:07;11.05;;;7.18;;
17340;SDS011;8788;49.930;8.660;2023-03-01T02:03:34;10.85;;;6.93;;
17340;SDS011;8788;49.930;8.660;2023-03-01T02:06:12;10.63;;;6.75;;
17340;SDS011;8788;49.930;8.660;2023-03-01T02:08:44;10.70;;;6.78;;
17340;SDS011;8788;49.930;8.660;2023-03-01T02:11:13;10.63;;;6.88;;
17340;SDS011;8788;49.930;8.660;2023-03-01T02:13:42;9.88;;;7.75;;
17340;SDS011;8788;49.930;8.660;2023-03-01T02:16:10;8.50;;;6.75;;
17340;SDS011;8788;49.930;8.660;2023-03-01T02:18:41;10.63;;;6.47;;
17340;SDS011;8788;49.930;8.660;2023-03-01T02:21:13;8.75;;;5.97;;
17340;SDS011;8788;49.930;8.660;2023-03-01T02:23:57;8.88;;;6.85;;
17340;SDS011;8788;49.930;8.660;2023-03-01T02:26:31;9.90;;;6.90;;
17340;SDS011;8788;49.930;8.660;2023-03-01T02:29:04;11.70;;;6.97;;
17340;SDS011;8788;49.930;8.660;2023-03-01T02:31:32;9.95;;;7.10;;
17340;SDS011;8788;49.930;8.660;2023-03-01T02:34:11;10.25;;;6.43;;
17340;SDS011;8788;49.930;8.660;2023-03-01T02:36:40;9.85;;;7.07;;
17340;SDS011;8788;49.930;8.660;2023-03-01T02:39:12;10.45;;;7.45;;
17340;SDS011;8788;49.930;8.660;2023-03-01T02:41:44;10.77;;;7.25;;
17340;SDS011;8788;49.930;8.660;2023-03-01T02:44:16;12.93;;;7.72;;
17340;SDS011;8788;49.930;8.660;2023-03-01T02:46:44;12.55;;;8.13;;
17340;SDS011;8788;49.930;8.660;2023-03-01T02:49:21;9.80;;;6.50;;
17340;SDS011;8788;49.930;8.660;2023-03-01T02:51:52;15.30;;;7.90;;
17340;SDS011;8788;49.930;8.660;2023-03-01T02:54:31;10.40;;;6.90;;
17340;SDS011;8788;49.930;8.660;2023-03-01T02:57:05;10.45;;;7.07;;
17340;SDS011;8788;49.930;8.660;2023-03-01T02:59:36;10.73;;;7.85;;
17340;SDS011;8788;49.930;8.660;2023-03-01T03:02:07;8.55;;;7.05;;
17340;SDS011;8788;49.930;8.660;2023-03-01T03:04:45;11.82;;;7.97;;
17340;SDS011;8788;49.930;8.660;2023-03-01T03:07:12;10.55;;;6.70;;
17340;SDS011;8788;49.930;8.660;2023-03-01T03:09:40;11.55;;;7.93;;
17340;SDS011;8788;49.930;8.660;2023-03-01T03:12:07;12.95;;;7.63;;
17340;SDS011;8788;49.930;8.660;2023-03-01T03:14:36;9.98;;;7.32;;
17340;SDS011;8788;49.930;8.660;2023-03-01T03:17:03;12.38;;;7.20;;
17340;SDS011;8788;49.930;8.660;2023-03-01T03:19:41;8.32;;;6.35;;
17340;SDS011;8788;49.930;8.660;2023-03-01T03:22:10;10.15;;;7.10;;
17340;SDS011;8788;49.930;8.660;2023-03-01T03:24:38;12.45;;;7.68;;
17340;SDS011;8788;49.930;8.660;2023-03-01T03:27:05;9.90;;;8.00;;
17340;SDS011;8788;49.930;8.660;2023-03-01T03:29:32;9.23;;;7.10;;
17340;SDS011;8788;49.930;8.660;2023-03-01T03:32:01;13.43;;;7.82;;
17340;SDS011;8788;49.930;8.660;2023-03-01T03:34:28;15.15;;;7.80;;
17340;SDS011;8788;49.930;8.660;2023-03-01T03:36:55;13.90;;;7.70;;
17340;SDS011;8788;49.930;8.660;2023-03-01T03:39:24;10.18;;;7.60;;
17340;SDS011;8788;49.930;8.660;2023-03-01T03:41:52;11.27;;;7.38;;
17340;SDS011;8788;49.930;8.660;2023-03-01T03:44:19;9.32;;;7.00;;
17340;SDS011;8788;49.930;8.660;2023-03-01T03:46:46;12.65;;;8.43;;
17340;SDS011;8788;49.930;8.660;2023-03-01T03:49:15;12.32;;;7.55;;
17340;SDS011;8788;49.930;8.660;2023-03-01T03:51:42;11.48;;;7.38;;
17340;SDS011;8788;49.930;8.660;2023-03-01T03:54:11;13.90;;;8.13;;
17340;SDS011;8788;49.930;8.660;2023-03-01T03:56:38;18.80;;;8.00;;
17340;SDS011;8788;49.930;8.660;2023-03-01T03:59:05;11.07;;;8.25;;
17340;SDS011;8788;49.930;8.660;2023-03-01T04:01:32;11.43;;;7.10;;
17340;SDS011;8788;49.930;8.660;2023-03-01T04:03:59;12.90;;;8.85;;
17340;SDS011;8788;49.930;8.660;2023-03-01T04:06:30;11.38;;;7.45;;
17340;SDS011;8788;49.930;8.660;2023-03-01T04:08:58;11.20;;;8.02;;
17340;SDS011;8788;49.930;8.660;2023-03-01T04:11:28;11.45;;;7.07;;
17340;SDS011;8788;49.930;8.660;2023-03-01T04:13:56;10.52;;;6.70;;
17340;SDS011;8788;49.930;8.660;2023-03-01T04:16:24;9.73;;;7.47;;
17340;SDS011;8788;49.930;8.660;2023-03-01T04:18:52;13.60;;;8.25;;
17340;SDS011;8788;49.930;8.660;2023-03-01T04:21:20;11.85;;;8.27;;
17340;SDS011;8788;49.930;8.660;2023-03-01T04:23:49;11.25;;;7.63;;
17340;SDS011;8788;49.930;8.660;2023-03-01T04:26:17;10.27;;;7.68;;
17340;SDS011;8788;49.930;8.660;2023-03-01T04:28:45;11.65;;;8.07;;
17340;SDS011;8788;49.930;8.660;2023-03-01T04:31:15;12.45;;;7.57;;
17340;SDS011;8788;49.930;8.660;2023-03-01T04:33:44;17.30;;;8.20;;
17340;SDS011;8788;49.930;8.660;2023-03-01T04:36:13;11.13;;;7.88;;
17340;SDS011;8788;49.930;8.660;2023-03-01T04:38:41;11.40;;;7.57;;
17340;SDS011;8788;49.930;8.660;2023-03-01T04:41:14;10.60;;;7.78;;
17340;SDS011;8788;49.930;8.660;2023-03-01T04:43:42;12.60;;;8.45;;
17340;SDS011;8788;49.930;8.660;2023-03-01T04:46:11;11.35;;;7.75;;
17340;SDS011;8788;49.930;8.660;2023-03-01T04:48:40;13.70;;;8.15;;
17340;SDS011;8788;49.930;8.660;2023-03-01T04:51:08;11.15;;;7.93;;
17340;SDS011;8788;49.930;8.660;2023-03-01T04:53:38;13.02;;;8.27;;
17340;SDS011;8788;49.930;8.660;2023-03-01T04:56:06;14.18;;;8.82;;
17340;SDS011;8788;49.930;8.660;2023-03-01T04:58:34;10.60;;;7.70;;
17340;SDS011;8788;49.930;8.660;2023-03-01T05:01:07;14.82;;;9.18;;
17340;SDS011;8788;49.930;8.660;2023-03-01T05:03:40;13.52;;;9.10;;
17340;SDS011;8788;49.930;8.660;2023-03-01T05:06:09;10.02;;;8.07;;
17340;SDS011;8788;49.930;8.660;2023-03-01T05:08:37;14.45;;;8.88;;
17340;SDS011;8788;49.930;8.660;2023-03-01T05:11:04;10.73;;;8.48;;
17340;SDS011;8788;49.930;8.660;2023-03-01T05:13:35;10.48;;;6.97;;
17340;SDS011;8788;49.930;8.660;2023-03-01T05:16:03;12.57;;;8.88;;
17340;SDS011;8788;49.930;8.660;2023-03-01T05:18:32;13.85;;;8.05;;
17340;SDS011;8788;49.930;8.660;2023-03-01T05:21:01;10.90;;;9.02;;
17340;SDS011;8788;49.930;8.660;2023-03-01T05:23:30;11.95;;;8.02;;
17340;SDS011;8788;49.930;8.660;2023-03-01T05:25:57;10.63;;;7.85;;
17340;SDS011;8788;49.930;8.660;2023-03-01T05:28:25;9.32;;;7.20;;
17340;SDS011;8788;49.930;8.660;2023-03-01T05:30:54;13.10;;;8.18;;
17340;SDS011;8788;49.930;8.660;2023-03-01T05:33:22;12.90;;;9.07;;
17340;SDS011;8788;49.930;8.660;2023-03-01T05:35:50;11.27;;;7.95;;
17340;SDS011;8788;49.930;8.660;2023-03-01T05:38:19;14.18;;;8.40;;
17340;SDS011;8788;49.930;8.660;2023-03-01T05:40:48;13.25;;;9.23;;
17340;SDS011;8788;49.930;8.660;2023-03-01T05:43:16;12.75;;;8.05;;
17340;SDS011;8788;49.930;8.660;2023-03-01T05:45:43;13.60;;;8.07;;
17340;SDS011;8788;49.930;8.660;2023-03-01T05:48:12;13.07;;;8.50;;
17340;SDS011;8788;49.930;8.660;2023-03-01T05:50:40;12.75;;;8.80;;
17340;SDS011;8788;49.930;8.660;2023-03-01T05:53:09;11.88;;;8.77;;
17340;SDS011;8788;49.930;8.660;2023-03-01T05:55:37;13.02;;;8.63;;
17340;SDS011;8788;49.930;8.660;2023-03-01T05:58:05;12.73;;;8.65;;
17340;SDS011;8788;49.930;8.660;2023-03-01T06:00:35;13.30;;;8.15;;
17340;SDS011;8788;49.930;8.660;2023-03-01T06:03:03;14.25;;;8.73;;
17340;SDS011;8788;49.930;8.660;2023-03-01T06:05:31;13.32;;;8.18;;
17340;SDS011;8788;49.930;8.660;2023-03-01T06:07:58;12.90;;;8.23;;
17340;SDS011;8788;49.930;8.660;2023-03-01T06:10:26;11.43;;;7.80;;
17340;SDS011;8788;49.930;8.660;2023-03-01T06:12:54;12.10;;;8.70;;
17340;SDS011;8788;49.930;8.660;2023-03-01T06:15:22;15.43;;;8.80;;
17340;SDS011;8788;49.930;8.660;2023-03-01T06:17:50;12.93;;;8.65;;
17340;SDS011;8788;49.930;8.660;2023-03-01T06:20:18;14.18;;;8.75;;
17340;SDS011;8788;49.930;8.660;2023-03-01T06:22:48;13.30;;;8.90;;
17340;SDS011;8788;49.930;8.660;2023-03-01T06:25:17;15.27;;;9.27;;
17340;SDS011;8788;49.930;8.660;2023-03-01T06:27:45;12.02;;;8.68;;
17340;SDS011;8788;49.930;8.660;2023-03-01T06:30:14;13.65;;;8.98;;
17340;SDS011;8788;49.930;8.660;2023-03-01T06:32:42;12.27;;;8.40;;
17340;SDS011;8788;49.930;8.660;2023-03-01T06:35:09;11.93;;;8.80;;
17340;SDS011;8788;49.930;8.660;2023-03-01T06:37:37;14.32;;;8.13;;
17340;SDS011;8788;49.930;8.660;2023-03-01T06:40:06;12.80;;;8.57;;
17340;SDS011;8788;49.930;8.660;2023-03-01T06:42:36;12.45;;;8.38;;
17340;SDS011;8788;49.930;8.660;2023-03-01T06:45:05;13.02;;;8.93;;
17340;SDS011;8788;49.930;8.660;2023-03-01T06:47:34;13.88;;;8.52;;
17340;SDS011;8788;49.930;8.660;2023-03-01T06:50:01;12.20;;;8.40;;
17340;SDS011;8788;49.930;8.660;2023-03-01T06:52:29;17.30;;;8.13;;
17340;SDS011;8788;49.930;8.660;2023-03-01T06:54:56;13.13;;;8.82;;
17340;SDS011;8788;49.930;8.660;2023-03-01T06:57:25;15.25;;;8.80;;
17340;SDS011;8788;49.930;8.660;2023-03-01T06:59:52;14.65;;;8.48;;
17340;SDS011;8788;49.930;8.660;2023-03-01T07:02:19;15.57;;;9.20;;
17340;SDS011;8788;49.930;8.660;2023-03-01T07:04:46;16.20;;;9.48;;
17340;SDS011;8788;49.930;8.660;2023-03-01T07:07:15;13.43;;;9.05;;
17340;SDS011;8788;49.930;8.660;2023-03-01T07:09:43;16.85;;;8.48;;
17340;SDS011;8788;49.930;8.660;2023-03-01T07:12:10;13.45;;;8.45;;
17340;SDS011;8788;49.930;8.660;2023-03-01T07:14:39;15.75;;;9.35;;
17340;SDS011;8788;49.930;8.660;2023-03-01T07:17:06;12.57;;;8.15;;
17340;SDS011;8788;49.930;8.660;2023-03-01T07:19:33;13.18;;;8.80;;
17340;SDS011;8788;49.930;8.660;2023-03-01T07:22:00;14.40;;;8.45;;
17340;SDS011;8788;49.930;8.660;2023-03-01T07:24:29;11.38;;;8.00;;
17340;SDS011;8788;49.930;8.660;2023-03-01T07:26:56;15.02;;;8.10;;
17340;SDS011;8788;49.930;8.660;2023-03-01T07:29:23;14.35;;;8.90;;
17340;SDS011;8788;49.930;8.660;2023-03-01T07:31:52;12.05;;;8.82;;
17340;SDS011;8788;49.930;8.660;2023-03-01T07:34:19;13.63;;;8.13;;
17340;SDS011;8788;49.930;8.660;2023-03-01T07:36:46;13.63;;;8.80;;
17340;SDS011;8788;49.930;8.660;2023-03-01T07:39:13;12.05;;;8.27;;
17340;SDS011;8788;49.930;8.660;2023-03-01T07:41:40;12.48;;;8.52;;
17340;SDS011;8788;49.930;8.660;2023-03-01T07:44:07;14.43;;;9.07;;
17340;SDS011;8788;49.930;8.660;2023-03-01T07:46:34;13.00;;;9.10;;
17340;SDS011;8788;49.930;8.660;2023-03-01T07:49:02;13.70;;;7.78;;
17340;SDS011;8788;49.930;8.660;2023-03-01T07:51:30;14.57;;;8.38;;
17340;SDS011;8788;49.930;8.660;2023-03-01T07:53:57;10.30;;;8.25;;
17340;SDS011;8788;49.930;8.660;2023-03-01T07:56:24;13.90;;;9.57;;
17340;SDS011;8788;49.930;8.660;2023-03-01T07:58:51;12.13;;;8.15;;
17340;SDS011;8788;49.930;8.660;2023-03-01T08:01:19;13.13;;;8.57;;
17340;SDS011;8788;49.930;8.660;2023-03-01T08:03:47;14.13;;;8.60;;
17340;SDS011;8788;49.930;8.660;2023-03-01T08:06:16;12.70;;;8.30;;
17340;SDS011;8788;49.930;8.660;2023-03-01T08:08:44;13.15;;;8.65;;
17340;SDS011;8788;49.930;8.660;2023-03-01T08:11:11;12.57;;;8.23;;
17340;SDS011;8788;49.930;8.660;2023-03-01T08:13:41;12.38;;;7.97;;
17340;SDS011;8788;49.930;8.660;2023-03-01T08:16:10;11.18;;;8.13;;
17340;SDS011;8788;49.930;8.660;2023-03-01T08:18:38;14.52;;;9.15;;
17340;SDS011;8788;49.930;8.660;2023-03-01T08:21:06;14.15;;;7.78;;
17340;SDS011;8788;49.930;8.660;2023-03-01T08:23:36;10.57;;;7.68;;
17340;SDS011;8788;49.930;8.660;2023-03-01T08:26:05;12.30;;;8.30;;
17340;SDS011;8788;49.930;8.660;2023-03-01T08:28:33;12.68;;;7.88;;
17340;SDS011;8788;49.930;8.660;2023-03-01T08:31:01;14.35;;;9.13;;
17340;SDS011;8788;49.930;8.660;2023-03-01T08:33:28;12.60;;;8.02;;
17340;SDS011;8788;49.930;8.660;2023-03-01T08:36:02;11.38;;;8.25;;
17340;SDS011;8788;49.930;8.660;2023-03-01T08:38:32;10.70;;;8.05;;
17340;SDS011;8788;49.930;8.660;2023-03-01T08:41:01;12.25;;;8.05;;
17340;SDS011;8788;49.930;8.660;2023-03-01T08:43:29;11.88;;;8.30;;
17340;SDS011;8788;49.930;8.660;2023-03-01T08:45:57;13.68;;;9.52;;
17340;SDS011;8788;49.930;8.660;2023-03-01T08:48:24;13.43;;;8.45;;
17340;SDS011;8788;49.930;8.660;2023-03-01T08:50:51;13.05;;;8.75;;
17340;SDS011;8788;49.930;8.660;2023-03-01T08:53:18;13.48;;;8.25;;
17340;SDS011;8788;49.930;8.660;2023-03-01T08:55:45;11.13;;;8.15;;
17340;SDS011;8788;49.930;8.660;2023-03-01T08:58:14;12.65;;;8.43;;
17340;SDS011;8788;49.930;8.660;2023-03-01T09:00:41;13.20;;;8.57;;
17340;SDS011;8788;49.930;8.660;2023-03-01T09:03:08;11.10;;;8.02;;
17340;SDS011;8788;49.930;8.660;2023-03-01T09:05:35;14.02;;;8.40;;
17340;SDS011;8788;49.930;8.660;2023-03-01T09:08:02;12.95;;;8.65;;
17340;SDS011;8788;49.930;8.660;2023-03-01T09:10:29;12.80;;;8.82;;
17340;SDS011;8788;49.930;8.660;2023-03-01T09:12:56;13.25;;;8.80;;
17340;SDS011;8788;49.930;8.660;2023-03-01T09:15:25;12.45;;;8.80;;
17340;SDS011;8788;49.930;8.660;2023-03-01T09:17:52;16.75;;;7.97;;
17340;SDS011;8788;49.930;8.660;2023-03-01T09:20:19;20.30;;;8.85;;
17340;SDS011;8788;49.930;8.660;2023-03-01T09:22:46;11.02;;;8.07;;
17340;SDS011;8788;49.930;8.660;2023-03-01T09:25:13;13.25;;;9.25;;
17340;SDS011;8788;49.930;8.660;2023-03-01T09:27:40;14.50;;;8.43;;
17340;SDS011;8788;49.930;8.660;2023-03-01T09:30:07;12.93;;;7.60;;
17340;SDS011;8788;49.930;8.660;2023-03-01T09:32:37;17.23;;;8.57;;
17340;SDS011;8788;49.930;8.660;2023-03-01T09:35:08;12.52;;;8.95;;
17340;SDS011;8788;49.930;8.660;2023-03-01T09:37:35;11.45;;;8.48;;
17340;SDS011;8788;49.930;8.660;2023-03-01T09:40:04;13.70;;;8.82;;
17340;SDS011;8788;49.930;8.660;2023-03-01T09:42:34;10.57;;;7.95;;
17340;SDS011;8788;49.930;8.660;2023-03-01T09:45:03;11.48;;;8.73;;
17340;SDS011;8788;49.930;8.660;2023-03-01T09:47:38;13.82;;;9.38;;
17340;SDS011;8788;49.930;8.660;2023-03-01T09:50:09;11.80;;;8.82;;
17340;SDS011;8788;49.930;8.660;2023-03-01T09:52:39;11.98;;;8.80;;
17340;SDS011;8788;49.930;8.660;2023-03-01T09:55:09;11.70;;;8.57;;
17340;SDS011;8788;49.930;8.660;2023-03-01T09:57:41;14.23;;;9.15;;
17340;SDS011;8788;49.930;8.660;2023-03-01T10:00:16;12.77;;;8.95;;
17340;SDS011;8788;49.930;8.660;2023-03-01T10:02:55;12.48;;;8.57;;
17340;SDS011;8788;49.930;8.660;2023-03-01T10:05:30;12.75;;;9.35;;
17340;SDS011;8788;49.930;8.660;2023-03-01T10:08:19;11.80;;;8.85;;
17340;SDS011;8788;49.930;8.660;2023-03-01T10:10:56;10.95;;;8.27;;
17340;SDS011;8788;49.930;8.660;2023-03-01T10:13:26;11.23;;;8.70;;
17340;SDS011;8788;49.930;8.660;2023-03-01T10:16:01;12.00;;;8.82;;
17340;SDS011;8788;49.930;8.660;2023-03-01T10:18:34;15.32;;;9.80;;
17340;SDS011;8788;49.930;8.660;2023-03-01T10:21:07;11.23;;;8.68;;
17340;SDS011;8788;49.930;8.660;2023-03-01T10:23:41;11.40;;;8.75;;
17340;SDS011;8788;49.930;8.660;2023-03-01T10:26:14;12.20;;;9.10;;
17340;SDS011;8788;49.930;8.660;2023-03-01T10:28:53;13.02;;;8.65;;
17340;SDS011;8788;49.930;8.660;2023-03-01T10:31:27;12.38;;;8.52;;
17340;SDS011;8788;49.930;8.660;2023-03-01T10:34:07;15.40;;;9.38;;
17340;SDS011;8788;49.930;8.660;2023-03-01T10:36:38;12.73;;;9.05;;
17340;SDS011;8788;49.930;8.660;2023-03-01T10:39:11;11.18;;;8.57;;
17340;SDS011;8788;49.930;8.660;2023-03-01T10:44:37;11.88;;;8.73;;
17340;SDS011;8788;49.930;8.660;2023-03-01T10:47:13;13.38;;;8.35;;
17340;SDS011;8788;49.930;8.660;2023-03-01T10:49:53;11.50;;;8.52;;
17340;SDS011;8788;49.930;8.660;2023-03-01T10:52:29;11.52;;;8.50;;
17340;SDS011;8788;49.930;8.660;2023-03-01T10:54:59;12.50;;;8.68;;
17340;SDS011;8788;49.930;8.660;2023-03-01T10:57:30;14.85;;;9.05;;
17340;SDS011;8788;49.930;8.660;2023-03-01T11:00:14;9.05;;;7.47;;
17340;SDS011;8788;49.930;8.660;2023-03-01T11:02:45;13.70;;;8.80;;
17340;SDS011;8788;49.930;8.660;2023-03-01T11:05:21;14.40;;;8.23;;
17340;SDS011;8788;49.930;8.660;2023-03-01T11:07:51;11.80;;;8.40;;
17340;SDS011;8788;49.930;8.660;2023-03-01T11:10:22;12.50;;;8.55;;
17340;SDS011;8788;49.930;8.660;2023-03-01T11:12:51;14.60;;;8.38;;
17340;SDS011;8788;49.930;8.660;2023-03-01T11:15:20;12.10;;;8.35;;
17340;SDS011;8788;49.930;8.660;2023-03-01T11:17:49;12.20;;;8.65;;
17340;SDS011;8788;49.930;8.660;2023-03-01T11:20:20;9.63;;;8.02;;
17340;SDS011;8788;49.930;8.660;2023-03-01T11:22:53;12.57;;;8.85;;
17340;SDS011;8788;49.930;8.660;2023-03-01T11:25:23;11.68;;;8.60;;
17340;SDS011;8788;49.930;8.660;2023-03-01T11:27:53;12.85;;;8.52;;
17340;SDS011;8788;49.930;8.660;2023-03-01T11:30:23;10.77;;;8.02;;
17340;SDS011;8788;49.930;8.660;2023-03-01T11:33:01;12.70;;;7.95;;
17340;SDS011;8788;49.930;8.660;2023-03-01T11:35:37;12.52;;;8.02;;
17340;SDS011;8788;49.930;8.660;2023-03-01T11:38:14;11.20;;;7.55;;
17340;SDS011;8788;49.930;8.660;2023-03-01T11:40:46;10.05;;;7.75;;
17340;SDS011;8788;49.930;8.660;2023-03-01T11:43:20;9.07;;;7.15;;
17340;SDS011;8788;49.930;8.660;2023-03-01T11:48:57;11.27;;;7.47;;
17340;SDS011;8788;49.930;8.660;2023-03-01T11:51:38;12.30;;;7.25;;
17340;SDS011;8788;49.930;8.660;2023-03-01T11:54:27;11.52;;;8.40;;
17340;SDS011;8788;49.930;8.660;2023-03-01T11:57:04;9.43;;;6.70;;
17340;SDS011;8788;49.930;8.660;2023-03-01T11:59:53;8.95;;;7.00;;
17340;SDS011;8788;49.930;8.660;2023-03-01T12:02:39;8.57;;;6.22;;
17340;SDS011;8788;49.930;8.660;2023-03-01T12:05:21;11.20;;;8.10;;
17340;SDS011;8788;49.930;8.660;2023-03-01T12:08:04;9.98;;;7.55;;
17340;SDS011;8788;49.930;8.660;2023-03-01T12:10:38;9.73;;;7.20;;
17340;SDS011;8788;49.930;8.660;2023-03-01T12:13:18;9.07;;;6.47;;
17340;SDS011;8788;49.930;8.660;2023-03-01T12:16:02;7.35;;;6.38;;
17340;SDS011;8788;49.930;8.660;2023-03-01T12:18:49;11.88;;;6.95;;
17340;SDS011;8788;49.930;8.660;2023-03-01T12:24:32;10.52;;;6.00;;
17340;SDS011;8788;49.930;8.660;2023-03-01T12:27:21;8.73;;;6.05;;
17340;SDS011;8788;49.930;8.660;2023-03-01T12:30:02;7.57;;;5.35;;
17340;SDS011;8788;49.930;8.660;2023-03-01T12:32:44;8.98;;;6.50;;
17340;SDS011;8788;49.930;8.660;2023-03-01T12:35:25;9.32;;;7.03;;
17340;SDS011;8788;49.930;8.660;2023-03-01T12:38:06;8.85;;;5.63;;
17340;SDS011;8788;49.930;8.660;2023-03-01T12:40:56;9.70;;;6.55;;
17340;SDS011;8788;49.930;8.660;2023-03-01T12:43:41;8.77;;;5.60;;
17340;SDS011;8788;49.930;8.660;2023-03-01T12:46:25;7.55;;;5.57;;
17340;SDS011;8788;49.930;8.660;2023-03-01T12:49:04;8.65;;;5.45;;
17340;SDS011;8788;49.930;8.660;2023-03-01T12:51:37;6.20;;;5.28;;
17340;SDS011;8788;49.930;8.660;2023-03-01T12:54:07;7.65;;;6.18;;
17340;SDS011;8788;49.930;8.660;2023-03-01T12:56:42;6.70;;;5.80;;
17340;SDS011;8788;49.930;8.660;2023-03-01T12:59:17;10.05;;;6.35;;
17340;SDS011;8788;49.930;8.660;2023-03-01T13:01:51;9.27;;;6.55;;
17340;SDS011;8788;49.930;8.660;2023-03-01T13:04:24;8.18;;;6.30;;
17340;SDS011;8788;49.930;8.660;2023-03-01T13:06:59;8.90;;;6.22;;
17340;SDS011;8788;49.930;8.660;2023-03-01T13:09:44;9.60;;;6.88;;
17340;SDS011;8788;49.930;8.660;2023-03-01T13:15:29;8.40;;;6.32;;
17340;SDS011;8788;49.930;8.660;2023-03-01T13:17:59;9.43;;;6.38;;
17340;SDS011;8788;49.930;8.660;2023-03-01T13:20:30;8.25;;;6.35;;
17340;SDS011;8788;49.930;8.660;2023-03-01T13:23:01;9.30;;;6.65;;
17340;SDS011;8788;49.930;8.660;2023-03-01T13:25:31;9.77;;;6.95;;
17340;SDS011;8788;49.930;8.660;2023-03-01T13:31:06;10.05;;;6.55;;
17340;SDS011;8788;49.930;8.660;2023-03-01T13:33:44;8.38;;;6.72;;
17340;SDS011;8788;49.930;8.660;2023-03-01T13:39:27;8.75;;;6.13;;
17340;SDS011;8788;49.930;8.660;2023-03-01T13:41:57;7.03;;;4.90;;
17340;SDS011;8788;49.930;8.660;2023-03-01T13:44:29;10.18;;;6.18;;
17340;SDS011;8788;49.930;8.660;2023-03-01T13:46:59;9.30;;;5.97;;
17340;SDS011;8788;49.930;8.660;2023-03-01T13:49:36;8.90;;;5.68;;
17340;SDS011;8788;49.930;8.660;2023-03-01T13:52:21;9.00;;;6.55;;
17340;SDS011;8788;49.930;8.660;2023-03-01T13:55:15;8.15;;;6.18;;
17340;SDS011;8788;49.930;8.660;2023-03-01T13:57:45;8.02;;;5.65;;
17340;SDS011;8788;49.930;8.660;2023-03-01T14:00:31;8.55;;;5.88;;
17340;SDS011;8788;49.930;8.660;2023-03-01T14:03:04;8.88;;;5.95;;
17340;SDS011;8788;49.930;8.660;2023-03-01T14:05:35;8.15;;;5.57;;
17340;SDS011;8788;49.930;8.660;2023-03-01T14:08:03;7.97;;;5.50;;
17340;SDS011;8788;49.930;8.660;2023-03-01T14:10:32;8.80;;;6.00;;
17340;SDS011;8788;49.930;8.660;2023-03-01T14:13:09;6.97;;;5.70;;
17340;SDS011;8788;49.930;8.660;2023-03-01T14:15:56;7.90;;;5.80;;
17340;SDS011;8788;49.930;8.660;2023-03-01T14:18:38;5.68;;;5.03;;
17340;SDS011;8788;49.930;8.660;2023-03-01T14:21:12;7.80;;;5.20;;
17340;SDS011;8788;49.930;8.660;2023-03-01T14:23:40;6.95;;;4.97;;
17340;SDS011;8788;49.930;8.660;2023-03-01T14:26:08;7.07;;;5.07;;
17340;SDS011;8788;49.930;8.660;2023-03-01T14:28:37;5.80;;;5.18;;
17340;SDS011;8788;49.930;8.660;2023-03-01T14:34:03;6.72;;;5.10;;
17340;SDS011;8788;49.930;8.660;2023-03-01T14:36:32;6.93;;;5.20;;
17340;SDS011;8788;49.930;8.660;2023-03-01T14:39:00;8.65;;;6.05;;
17340;SDS011;8788;49.930;8.660;2023-03-01T14:41:32;6.43;;;5.20;;
17340;SDS011;8788;49.930;8.660;2023-03-01T14:44:02;8.80;;;5.78;;
17340;SDS011;8788;49.930;8.660;2023-03-01T14:46:33;6.70;;;5.80;;
17340;SDS011;8788;49.930;8.660;2023-03-01T14:49:03;8.95;;;6.68;;
17340;SDS011;8788;49.930;8.660;2023-03-01T14:51:35;7.22;;;5.70;;
17340;SDS011;8788;49.930;8.660;2023-03-01T14:54:04;8.50;;;5.68;;
17340;SDS011;8788;49.930;8.660;2023-03-01T14:56:45;9.40;;;6.10;;
17340;SDS011;8788;49.930;8.660;2023-03-01T14:59:13;7.63;;;5.90;;
17340;SDS011;8788;49.930;8.660;2023-03-01T15:01:41;9.75;;;6.90;;
17340;SDS011;8788;49.930;8.660;2023-03-01T15:04:11;6.47;;;5.22;;
17340;SDS011;8788;49.930;8.660;2023-03-01T15:06:39;8.30;;;6.00;;
17340;SDS011;8788;49.930;8.660;2023-03-01T15:09:11;9.10;;;6.28;;
17340;SDS011;8788;49.930;8.660;2023-03-01T15:11:41;10.38;;;6.57;;
17340;SDS011;8788;49.930;8.660;2023-03-01T15:14:25;8.43;;;6.40;;
17340;SDS011;8788;49.930;8.660;2023-03-01T15:17:15;6.57;;;5.57;;
17340;SDS011;8788;49.930;8.660;2023-03-01T15:19:50;6.45;;;5.72;;
17340;SDS011;8788;49.930;8.660;2023-03-01T15:22:17;7.28;;;6.05;;
17340;SDS011;8788;49.930;8.660;2023-03-01T15:24:46;7.80;;;6.20;;
17340;SDS011;8788;49.930;8.660;2023-03-01T15:27:15;7.10;;;5.90;;
17340;SDS011;8788;49.930;8.660;2023-03-01T15:29:48;6.80;;;6.10;;
17340;SDS011;8788;49.930;8.660;2023-03-01T15:32:25;8.80;;;5.72;;
17340;SDS011;8788;49.930;8.660;2023-03-01T15:34:55;7.43;;;5.45;;
17340;SDS011;8788;49.930;8.660;2023-03-01T15:37:40;8.20;;;5.55;;